Time;durP1;ratioP1;P1;durP2;ratioP2;P2;SDS_P1;SDS_P2;PMS_P1;PMS_P2;Temp;Humidity;BMP_temperature;BMP_pressure;BME280_temperature;BME280_humidity;BME280_pressure;Samples;Min_cycle;Max_cycle;Signal;HPM_P1;HPM_P2
2024/03/04 00:00:28;;;;;;;26.20;14.47;;;;;;;5.64;100.00;99767.66;5055823;28;20221;-80
2024/03/04 00:02:54;;;;;;;25.73;15.87;;;;;;;5.63;100.00;99773.88;5053067;28;20202;-80
2024/03/04 00:05:20;;;;;;;27.50;15.43;;;;;;;5.60;100.00;99774.88;5050632;28;20221;-80
2024/03/04 00:07:47;;;;;;;26.67;15.80;;;;;;;5.58;100.00;99774.97;5051031;28;20225;-80
2024/03/04 00:10:15;;;;;;;24.20;16.00;;;;;;;5.56;100.00;99774.19;5050551;28;20206;-81
2024/03/04 00:12:44;;;;;;;28.00;16.30;;;;;;;5.53;100.00;99776.19;5046483;28;20201;-80
2024/03/04 00:15:11;;;;;;;25.60;16.17;;;;;;;5.50;100.00;99774.56;5047657;28;20289;-80
2024/03/04 00:17:37;;;;;;;28.97;16.57;;;;;;;5.49;100.00;99778.16;5052992;28;20213;-80
2024/03/04 00:20:06;;;;;;;28.17;15.70;;;;;;;5.47;100.00;99777.38;5052358;28;20233;-80
2024/03/04 00:22:33;;;;;;;28.53;15.73;;;;;;;5.44;100.00;99774.06;5052202;28;20709;-80
2024/03/04 00:25:00;;;;;;;23.50;15.30;;;;;;;5.43;100.00;99781.13;5054576;28;20221;-79
2024/03/04 00:27:28;;;;;;;28.87;15.97;;;;;;;5.41;100.00;99776.84;5058717;28;20213;-80
2024/03/04 00:29:54;;;;;;;27.57;15.47;;;;;;;5.39;100.00;99776.09;5050042;28;20214;-81
2024/03/04 00:32:21;;;;;;;27.13;15.20;;;;;;;5.37;100.00;99775.34;5055818;28;20208;-80
2024/03/04 00:34:47;;;;;;;25.17;16.37;;;;;;;5.35;100.00;99779.88;5056119;28;20244;-81
2024/03/04 00:37:14;;;;;;;25.90;15.53;;;;;;;5.34;100.00;99780.81;5051998;28;20293;-80
2024/03/04 00:39:41;;;;;;;27.00;15.73;;;;;;;5.32;100.00;99780.03;5055388;28;20225;-83
2024/03/04 00:42:08;;;;;;;26.57;15.30;;;;;;;5.30;100.00;99779.25;5053160;28;20563;-80
2024/03/04 00:44:36;;;;;;;27.47;17.10;;;;;;;5.27;100.00;99782.91;5049060;28;20225;-80
2024/03/04 00:47:03;;;;;;;27.50;16.47;;;;;;;5.25;100.00;99784.78;5046164;28;20293;-80
2024/03/04 00:49:29;;;;;;;26.73;16.40;;;;;;;5.24;100.00;99786.56;5051821;28;20202;-80
2024/03/04 00:51:56;;;;;;;28.20;16.83;;;;;;;5.23;100.00;99791.94;5059785;28;20196;-80
2024/03/04 00:54:23;;;;;;;27.00;16.57;;;;;;;5.20;100.00;99797.38;5051984;28;20217;-80
2024/03/04 00:56:49;;;;;;;28.23;15.80;;;;;;;5.19;100.00;99798.34;5059770;28;20617;-81
2024/03/04 00:59:17;;;;;;;27.27;16.83;;;;;;;5.16;100.00;99788.78;5050245;28;20729;-80
2024/03/04 01:01:45;;;;;;;30.30;16.97;;;;;;;5.14;100.00;99784.53;5055274;28;20243;-80
2024/03/04 01:04:11;;;;;;;28.13;16.87;;;;;;;5.12;100.00;99787.25;5052889;28;20244;-80
2024/03/04 01:06:38;;;;;;;28.90;18.10;;;;;;;5.09;100.00;99787.41;5058278;28;20228;-81
2024/03/04 01:09:05;;;;;;;28.47;16.53;;;;;;;5.08;100.00;99793.63;5053250;28;20205;-81
2024/03/04 01:11:31;;;;;;;26.67;16.87;;;;;;;5.07;100.00;99799.00;5054039;28;20220;-80
2024/03/04 01:13:59;;;;;;;30.13;16.67;;;;;;;5.04;100.00;99791.22;5058899;28;20232;-80
2024/03/04 01:16:25;;;;;;;31.87;16.57;;;;;;;5.02;100.00;99796.59;5054132;28;20696;-80
2024/03/04 01:18:53;;;;;;;26.30;17.03;;;;;;;4.99;100.00;99793.28;5055446;28;20237;-80
2024/03/04 01:21:21;;;;;;;28.83;17.13;;;;;;;4.96;100.00;99794.31;5058646;28;20210;-80
2024/03/04 01:23:50;;;;;;;30.97;16.27;;;;;;;4.94;100.00;99793.53;5056610;28;20331;-80
2024/03/04 01:26:18;;;;;;;24.07;15.07;;;;;;;4.91;100.00;99792.84;5065467;28;20214;-80
2024/03/04 01:28:47;;;;;;;23.50;15.57;;;;;;;4.87;100.00;99800.06;5054643;28;20263;-80
2024/03/04 01:31:14;;;;;;;25.30;14.73;;;;;;;4.83;100.00;99796.75;5052879;28;20205;-80
2024/03/04 01:33:41;;;;;;;23.63;14.60;;;;;;;4.80;100.00;99799.56;5066681;28;20221;-80
2024/03/04 01:36:09;;;;;;;23.27;15.13;;;;;;;4.77;100.00;99793.59;5048002;28;20229;-81
2024/03/04 01:38:36;;;;;;;24.07;15.13;;;;;;;4.73;100.00;99800.81;5056333;28;20205;-80
2024/03/04 01:41:02;;;;;;;25.60;15.20;;;;;;;4.70;100.00;99811.50;5049414;28;20803;-81
2024/03/04 01:43:29;;;;;;;24.40;14.97;;;;;;;4.66;100.00;99807.31;5059885;28;20500;-81
2024/03/04 01:45:55;;;;;;;23.67;15.07;;;;;;;4.64;100.00;99808.34;5060279;28;20279;-81
2024/03/04 01:48:23;;;;;;;25.03;14.93;;;;;;;4.62;100.00;99815.50;5052237;28;20202;-80
2024/03/04 01:50:51;;;;;;;26.63;15.60;;;;;;;4.59;100.00;99819.13;5055449;28;20193;-81
2024/03/04 01:53:19;;;;;;;24.47;14.67;;;;;;;4.54;100.00;99819.38;5050757;28;20209;-81
2024/03/04 01:55:49;;;;;;;22.70;13.33;;;;;;;4.48;100.00;99817.03;5055927;28;20691;-80
2024/03/04 01:58:17;;;;;;;20.97;13.70;;;;;;;4.45;100.00;99825.13;5050544;28;20245;-80
2024/03/04 02:00:46;;;;;;;19.60;13.80;;;;;;;4.43;100.00;99820.88;5050462;28;20230;-80
2024/03/04 02:03:16;;;;;;;21.07;13.77;;;;;;;4.39;100.00;99822.81;5053485;28;20214;-80
2024/03/04 02:05:44;;;;;;;26.33;15.20;;;;;;;4.38;100.00;99829.00;5052083;28;20292;-80
2024/03/04 02:08:12;;;;;;;26.13;14.83;;;;;;;4.35;100.00;99828.31;5055481;28;20684;-80
2024/03/04 02:10:41;;;;;;;22.33;13.13;;;;;;;4.33;100.00;99832.78;5061027;28;20654;-80
2024/03/04 02:13:08;;;;;;;20.50;13.40;;;;;;;4.29;100.00;99832.13;5054715;28;20212;-80
2024/03/04 02:15:37;;;;;;;23.37;14.07;;;;;;;4.28;100.00;99834.84;5056961;28;20201;-80
2024/03/04 02:18:06;;;;;;;26.47;14.23;;;;;;;4.25;100.00;99840.25;5057905;28;20296;-80
2024/03/04 02:20:36;;;;;;;22.63;14.07;;;;;;;4.21;100.00;99831.63;5050541;28;20274;-81
2024/03/04 02:23:06;;;;;;;23.10;14.60;;;;;;;4.18;100.00;99837.91;5053472;28;20208;-80
2024/03/04 02:25:34;;;;;;;23.03;14.07;;;;;;;4.14;100.00;99846.91;5056162;28;20271;-80
2024/03/04 02:28:02;;;;;;;24.47;14.40;;;;;;;4.09;100.00;99848.06;5052188;28;20209;-80
2024/03/04 02:30:28;;;;;;;23.20;13.93;;;;;;;4.05;100.00;99857.06;5054376;28;20500;-80
2024/03/04 02:32:56;;;;;;;23.67;13.70;;;;;;;4.00;100.00;99849.38;5055635;28;20861;-80
2024/03/04 02:35:23;;;;;;;22.33;13.33;;;;;;;3.97;100.00;99853.94;5058195;28;20251;-80
2024/03/04 02:37:50;;;;;;;25.40;14.00;;;;;;;3.94;100.00;99849.66;5054231;28;20211;-82
2024/03/04 02:40:18;;;;;;;24.67;14.40;;;;;;;3.93;100.00;99860.28;5046597;28;20225;-79
2024/03/04 02:42:44;;;;;;;24.77;14.13;;;;;;;3.89;100.00;99862.22;5056556;28;20198;-79
2024/03/04 02:45:11;;;;;;;25.10;14.37;;;;;;;3.87;100.00;99861.44;5049862;28;20222;-80
2024/03/04 02:47:38;;;;;;;21.83;13.80;;;;;;;3.85;100.00;99871.19;5053592;28;20653;-79
2024/03/04 02:50:07;;;;;;;23.57;14.43;;;;;;;3.83;100.00;99873.03;5056671;28;20206;-80
2024/03/04 02:52:33;;;;;;;26.50;14.53;;;;;;;3.82;100.00;99876.59;5048903;28;20210;-80
2024/03/04 02:55:00;;;;;;;24.27;14.30;;;;;;;3.81;100.00;99874.88;5053718;28;20685;-80
2024/03/04 02:57:28;;;;;;;21.20;12.97;;;;;;;3.78;100.00;99877.66;5053626;28;20699;-80
2024/03/04 02:59:54;;;;;;;20.27;12.97;;;;;;;3.75;100.00;99888.38;5062369;28;20221;-80
2024/03/04 03:02:22;;;;;;;16.87;11.03;;;;;;;3.70;100.00;99893.00;5059215;28;20216;-80
2024/03/04 03:04:48;;;;;;;13.17;10.37;;;;;;;3.61;100.00;99898.69;5047446;28;20252;-80
2024/03/04 03:07:15;;;;;;;13.83;9.83;;;;;;;3.52;100.00;99902.59;5054582;28;20213;-79
2024/03/04 03:09:41;;;;;;;12.73;9.33;;;;;;;3.43;100.00;99887.22;5051825;28;20197;-82
2024/03/04 03:12:10;;;;;;;10.17;7.93;;;;;;;3.38;100.00;99890.09;5053283;28;20213;-81
2024/03/04 03:14:38;;;;;;;12.60;8.77;;;;;;;3.35;100.00;99892.84;5052953;28;20221;-82
2024/03/04 03:17:05;;;;;;;13.63;9.63;;;;;;;3.32;100.00;99878.97;5050633;28;20654;-81
2024/03/04 03:19:33;;;;;;;12.97;9.80;;;;;;;3.30;100.00;99881.69;5051239;28;20206;-82
2024/03/04 03:21:59;;;;;;;14.73;10.73;;;;;;;3.30;100.00;99883.47;5052627;28;20413;-82
2024/03/04 03:24:26;;;;;;;13.30;10.50;;;;;;;3.29;100.00;99884.38;5051850;28;20229;-82
2024/03/04 03:26:52;;;;;;;15.57;10.90;;;;;;;3.29;100.00;99884.38;5063220;28;20197;-82
2024/03/04 03:29:19;;;;;;;17.13;11.47;;;;;;;3.26;100.00;99893.25;5051968;28;20210;-82
2024/03/04 03:31:46;;;;;;;19.70;11.53;;;;;;;3.24;100.00;99903.00;5056414;28;21877;-81
2024/03/04 03:34:13;;;;;;;17.43;11.27;;;;;;;3.24;100.00;99894.25;5050133;28;20222;-82
2024/03/04 03:36:48;;;;;;;20.10;11.67;;;;;;;3.22;100.00;99896.13;5048419;28;20216;-81
2024/03/04 03:39:14;;;;;;;20.37;12.77;;;;;;;3.21;100.00;99905.78;5049484;28;20197;-82
2024/03/04 03:41:40;;;;;;;22.47;13.80;;;;;;;3.19;100.00;99918.16;5054747;28;20222;-81
2024/03/04 03:44:07;;;;;;;20.60;12.87;;;;;;;3.18;100.00;99919.09;5052898;28;20225;-82
2024/03/04 03:46:34;;;;;;;19.90;13.30;;;;;;;3.17;100.00;99925.25;5046568;28;20213;-82
2024/03/04 03:49:01;;;;;;;22.23;13.27;;;;;;;3.16;100.00;99933.22;5060298;28;20200;-82
2024/03/04 03:51:28;;;;;;;20.13;12.67;;;;;;;3.14;100.00;99928.03;5049367;28;20220;-81
2024/03/04 03:53:54;;;;;;;21.60;13.07;;;;;;;3.13;100.00;99934.22;5043992;28;20227;-82
2024/03/04 03:56:21;;;;;;;20.67;12.47;;;;;;;3.11;100.00;99928.16;5049794;28;20646;-82
2024/03/04 03:58:50;;;;;;;21.57;12.80;;;;;;;3.08;100.00;99934.41;5056731;28;20210;-82
2024/03/04 04:01:17;;;;;;;21.70;13.30;;;;;;;3.05;100.00;99924.00;5050684;28;20222;-83
2024/03/04 04:03:43;;;;;;;20.97;13.10;;;;;;;3.03;100.00;99932.91;5053810;28;20608;-82
2024/03/04 04:06:12;;;;;;;16.17;11.50;;;;;;;3.00;100.00;99935.69;5046619;28;20560;-82
2024/03/04 04:08:40;;;;;;;14.83;10.43;;;;;;;2.95;100.00;99935.03;5050331;28;20205;-82
2024/03/04 04:11:07;;;;;;;13.33;9.80;;;;;;;2.89;100.00;99936.13;5054565;28;20216;-82
2024/03/04 04:13:33;;;;;;;13.63;10.10;;;;;;;2.84;100.00;99942.53;5050452;28;20228;-82
2024/03/04 04:16:00;;;;;;;14.80;9.70;;;;;;;2.80;100.00;99936.53;5048961;28;20193;-82
2024/03/04 04:18:27;;;;;;;15.87;10.80;;;;;;;2.79;100.00;99945.34;5053061;28;20569;-81
2024/03/04 04:20:53;;;;;;;14.37;10.00;;;;;;;2.77;100.00;99950.66;5061558;28;20263;-81
2024/03/04 04:23:22;;;;;;;18.10;11.57;;;;;;;2.77;100.00;99957.69;5054258;28;20216;-81
2024/03/04 04:25:50;;;;;;;17.93;11.80;;;;;;;2.76;100.00;99950.72;5052949;28;20673;-82
2024/03/04 04:28:17;;;;;;;18.33;11.47;;;;;;;2.73;100.00;99954.34;5053543;28;20711;-81
2024/03/04 04:30:43;;;;;;;14.73;10.33;;;;;;;2.73;100.00;99964.00;5053159;28;20209;-81
2024/03/04 04:33:10;;;;;;;15.10;11.30;;;;;;;2.71;100.00;99950.91;5053769;28;20657;-81
2024/03/04 04:35:36;;;;;;;15.83;10.90;;;;;;;2.70;100.00;99967.59;5051525;28;20236;-82
2024/03/04 04:38:03;;;;;;;19.60;11.90;;;;;;;2.70;100.00;99970.25;5051933;28;20197;-82
2024/03/04 04:40:31;;;;;;;16.10;10.97;;;;;;;2.68;100.00;99973.88;5052520;28;20821;-81
2024/03/04 04:42:58;;;;;;;19.43;12.47;;;;;;;2.67;100.00;99986.16;5057853;28;20286;-81
2024/03/04 04:45:26;;;;;;;17.40;11.73;;;;;;;2.66;100.00;99980.97;5054421;28;20249;-81
2024/03/04 04:47:52;;;;;;;17.23;11.33;;;;;;;2.63;100.00;99978.47;5054577;28;20224;-81
2024/03/04 04:50:19;;;;;;;13.93;9.83;;;;;;;2.59;100.00;99974.25;5061220;28;20202;-81
2024/03/04 04:52:45;;;;;;;12.07;9.40;;;;;;;2.55;100.00;99972.66;5048216;28;20658;-81
2024/03/04 04:55:12;;;;;;;14.07;10.37;;;;;;;2.50;100.00;99972.00;5052092;28;20232;-81
2024/03/04 04:57:40;;;;;;;11.53;10.20;;;;;;;2.46;100.00;99976.53;5048813;28;20217;-81
2024/03/04 05:00:08;;;;;;;12.23;9.07;;;;;;;2.41;100.00;99979.34;5055535;28;20197;-81
2024/03/04 05:02:35;;;;;;;13.83;10.57;;;;;;;2.38;100.00;99989.97;5055759;28;20201;-81
2024/03/04 05:05:01;;;;;;;14.23;10.37;;;;;;;2.34;100.00;99990.16;5047914;28;20283;-81
2024/03/04 05:07:28;;;;;;;13.60;10.50;;;;;;;2.33;100.00;99999.81;5056819;28;20217;-84
2024/03/04 05:09:55;;;;;;;12.27;9.70;;;;;;;2.32;100.00;100007.78;5057045;28;20211;-81
2024/03/04 05:12:22;;;;;;;13.77;9.80;;;;;;;2.30;100.00;100002.56;5056585;28;20271;-81
2024/03/04 05:14:50;;;;;;;13.40;9.20;;;;;;;2.31;100.00;100016.56;5055470;28;20593;-81
2024/03/04 05:17:17;;;;;;;13.97;10.63;;;;;;;2.30;100.00;100009.59;5060057;28;20205;-81
2024/03/04 05:19:43;;;;;;;14.77;10.90;;;;;;;2.30;100.00;100020.13;5058073;28;20206;-81
2024/03/04 05:22:12;;;;;;;13.10;10.27;;;;;;;2.28;100.00;100022.81;5057070;28;20719;-81
2024/03/04 05:24:39;;;;;;;16.10;10.57;;;;;;;2.27;100.00;100028.13;5056318;28;20221;-80
2024/03/04 05:27:05;;;;;;;14.50;10.97;;;;;;;2.28;100.00;100032.44;5055364;28;20202;-81
2024/03/04 05:29:32;;;;;;;14.70;10.60;;;;;;;2.26;100.00;100023.78;5054513;28;20220;-81
2024/03/04 05:32:00;;;;;;;15.80;11.57;;;;;;;2.24;100.00;100025.59;5052559;28;20251;-81
2024/03/04 05:34:27;;;;;;;14.27;10.00;;;;;;;2.23;100.00;100040.50;5058221;28;20228;-81
2024/03/04 05:36:55;;;;;;;16.37;10.50;;;;;;;2.18;100.00;100031.94;5054484;28;20212;-81
2024/03/04 05:39:21;;;;;;;18.33;11.47;;;;;;;2.16;100.00;100031.13;5051754;28;20206;-81
2024/03/04 05:41:49;;;;;;;12.33;9.87;;;;;;;2.15;100.00;100024.16;5052633;28;20226;-82
2024/03/04 05:44:15;;;;;;;12.43;9.63;;;;;;;2.16;100.00;100027.66;5051277;28;20225;-80
2024/03/04 05:46:43;;;;;;;13.03;9.40;;;;;;;2.15;100.00;100028.59;5039888;28;20217;-79
2024/03/04 05:49:11;;;;;;;15.17;10.67;;;;;;;2.15;100.00;100034.69;5052928;28;20235;-81
2024/03/04 05:51:40;;;;;;;14.07;11.20;;;;;;;2.14;100.00;100040.88;5051567;28;20217;-78
2024/03/04 05:54:06;;;;;;;15.93;11.23;;;;;;;2.12;100.00;100041.84;5047791;28;20225;-81
2024/03/04 05:56:33;;;;;;;16.90;10.93;;;;;;;2.09;100.00;100043.66;5052665;28;20212;-82
2024/03/04 05:58:59;;;;;;;17.13;11.57;;;;;;;2.09;100.00;100063.84;5053097;28;20767;-82
2024/03/04 06:01:26;;;;;;;18.33;12.40;;;;;;;2.11;100.00;100063.78;5054696;28;20221;-79
2024/03/04 06:03:52;;;;;;;17.67;12.23;;;;;;;2.13;100.00;100061.94;5053501;28;20308;-79
2024/03/04 06:06:20;;;;;;;20.13;12.67;;;;;;;2.17;100.00;100053.88;5055613;28;20206;-80
2024/03/04 06:08:46;;;;;;;19.60;13.33;;;;;;;2.21;100.00;100065.97;5058425;28;20206;-80
2024/03/04 06:11:15;;;;;;;25.70;15.43;;;;;;;2.24;100.00;100065.88;5052312;28;20205;-79
2024/03/04 06:13:41;;;;;;;31.80;16.70;;;;;;;2.28;100.00;100063.97;5045575;28;20229;-80
2024/03/04 06:16:08;;;;;;;29.93;15.90;;;;;;;2.31;100.00;100069.13;5051210;28;20197;-80
2024/03/04 06:18:34;;;;;;;24.17;14.77;;;;;;;2.32;100.00;100076.09;5055715;28;20658;-80
2024/03/04 06:21:01;;;;;;;22.53;13.17;;;;;;;2.33;100.00;100077.81;5052826;28;20233;-80
2024/03/04 06:23:28;;;;;;;28.37;15.67;;;;;;;2.32;100.00;100087.47;5054890;28;20236;-80
2024/03/04 06:25:55;;;;;;;30.47;14.63;;;;;;;2.32;100.00;100091.84;5049152;28;20202;-80
2024/03/04 06:28:22;;;;;;;34.63;15.90;;;;;;;2.31;100.00;100092.78;5051524;28;20217;-80
2024/03/04 06:30:49;;;;;;;37.73;16.53;;;;;;;2.35;100.00;100096.97;5051935;28;20225;-81
2024/03/04 06:33:15;;;;;;;58.07;20.50;;;;;;;2.37;100.00;100097.78;5051930;28;20576;-80
2024/03/04 06:35:42;;;;;;;54.83;20.63;;;;;;;2.42;100.00;100099.31;5053367;28;20205;-81
2024/03/04 06:38:09;;;;;;;70.53;24.03;;;;;;;2.49;100.00;100099.09;5049866;28;20209;-81
2024/03/04 06:40:37;;;;;;;145.43;29.63;;;;;;;2.56;100.00;100097.91;5052223;28;20662;-81
2024/03/04 06:43:04;;;;;;;99.67;30.40;;;;;;;2.63;100.00;100097.63;5049618;28;20202;-80
2024/03/04 06:45:30;;;;;;;79.80;28.10;;;;;;;2.69;100.00;100092.09;5048608;28;20228;-80
2024/03/04 06:48:01;;;;;;;155.07;32.67;;;;;;;2.77;100.00;100090.03;5051421;28;20206;-79
2024/03/04 06:50:28;;;;;;;194.03;35.53;;;;;;;2.85;100.00;100100.25;5049264;28;20221;-80
2024/03/04 06:52:54;;;;;;;102.13;26.90;;;;;;;2.94;100.00;100101.63;5050791;28;20201;-81
2024/03/04 06:55:21;;;;;;;129.10;26.70;;;;;;;3.00;100.00;100097.00;5051766;28;20226;-80
2024/03/04 06:57:49;;;;;;;218.77;34.97;;;;;;;3.05;100.00;100113.41;5048990;28;20209;-81
2024/03/04 07:00:17;;;;;;;121.43;29.53;;;;;;;3.11;100.00;100099.16;5050731;28;20198;-80
2024/03/04 07:02:46;;;;;;;96.33;30.17;;;;;;;3.19;100.00;100115.50;5050557;28;20221;-81
2024/03/04 07:05:13;;;;;;;87.63;29.20;;;;;;;3.26;100.00;100111.69;5046594;28;20233;-81
2024/03/04 07:07:39;;;;;;;102.50;28.43;;;;;;;3.35;100.00;100113.09;5050206;28;20201;-81
2024/03/04 07:10:07;;;;;;;106.50;27.47;;;;;;;3.40;100.00;100106.69;5049890;28;20204;-80
2024/03/04 07:12:36;;;;;;;76.10;28.00;;;;;;;3.46;100.00;100126.63;5048099;28;20677;-79
2024/03/04 07:15:04;;;;;;;88.90;29.03;;;;;;;3.51;100.00;100122.03;5041745;28;20230;-81
2024/03/04 07:17:31;;;;;;;83.60;28.73;;;;;;;3.58;100.00;100120.00;5047107;28;20214;-81
2024/03/04 07:19:57;;;;;;;93.83;30.70;;;;;;;3.63;100.00;100129.41;5049272;28;20259;-80
2024/03/04 07:22:24;;;;;;;82.17;30.77;;;;;;;3.70;100.00;100132.63;5049639;28;20230;-79
2024/03/04 07:24:50;;;;;;;70.93;29.53;;;;;;;3.74;100.00;100137.72;5048645;28;20226;-82
2024/03/04 07:27:17;;;;;;;95.40;31.27;;;;;;;3.80;100.00;100140.06;5051189;28;20205;-82
2024/03/04 07:29:43;;;;;;;78.53;30.03;;;;;;;3.85;100.00;100139.88;5048102;28;20265;-82
2024/03/04 07:32:11;;;;;;;86.63;30.47;;;;;;;3.90;100.00;100145.78;5047839;28;20201;-82
2024/03/04 07:34:38;;;;;;;108.70;31.47;;;;;;;3.94;100.00;100149.97;5054805;28;20236;-79
2024/03/04 07:37:04;;;;;;;79.17;29.57;;;;;;;3.98;100.00;100153.34;5049159;28;20602;-78
2024/03/04 07:39:31;;;;;;;85.00;29.83;;;;;;;4.00;100.00;100156.78;5042984;28;20206;-81
2024/03/04 07:41:57;;;;;;;59.60;25.83;;;;;;;4.04;100.00;100145.19;5049840;28;20232;-79
2024/03/04 07:44:24;;;;;;;63.70;26.13;;;;;;;4.05;100.00;100153.00;5045794;28;20226;-79
2024/03/04 07:46:50;;;;;;;77.70;26.17;;;;;;;4.06;100.00;100173.19;5046736;28;20202;-80
2024/03/04 07:49:19;;;;;;;78.30;27.73;;;;;;;4.07;100.00;100166.97;5049972;28;20220;-79
2024/03/04 07:51:45;;;;;;;64.73;26.83;;;;;;;4.11;100.00;100170.34;5047759;28;20252;-79
2024/03/04 07:54:12;;;;;;;105.07;27.33;;;;;;;4.15;100.00;100164.00;5047388;28;20221;-80
2024/03/04 07:56:38;;;;;;;96.40;29.10;;;;;;;4.16;100.00;100168.34;5049771;28;20212;-79
2024/03/04 07:59:05;;;;;;;88.67;26.63;;;;;;;4.21;100.00;100168.13;5050406;28;20587;-80
2024/03/04 08:01:31;;;;;;;94.97;26.97;;;;;;;4.25;100.00;100169.72;5048633;28;20228;-79
2024/03/04 08:03:57;;;;;;;70.83;26.27;;;;;;;4.31;100.00;100172.06;5049766;28;20232;-79
2024/03/04 08:06:25;;;;;;;77.43;26.70;;;;;;;4.34;100.00;100171.94;5033376;28;20210;-79
2024/03/04 08:08:52;;;;;;;82.27;26.57;;;;;;;4.36;100.00;100170.06;5049661;28;20209;-79
2024/03/04 08:11:18;;;;;;;74.47;28.70;;;;;;;4.38;100.00;100174.34;5052683;28;20201;-78
2024/03/04 08:13:45;;;;;;;84.87;28.47;;;;;;;4.42;100.00;100194.41;5044300;28;20260;-78
2024/03/04 08:16:11;;;;;;;82.17;27.60;;;;;;;4.45;100.00;100193.41;5044365;28;20585;-78
2024/03/04 08:18:37;;;;;;;88.20;27.53;;;;;;;4.47;100.00;100187.16;5053347;28;20579;-79
2024/03/04 08:21:04;;;;;;;68.33;26.77;;;;;;;4.52;100.00;100189.53;5052859;28;20210;-79
2024/03/04 08:23:33;;;;;;;73.07;27.07;;;;;;;4.55;100.00;100186.78;5052565;28;20213;-79
2024/03/04 08:25:59;;;;;;;89.07;26.97;;;;;;;4.59;100.00;100198.91;5055166;28;20229;-78
2024/03/04 08:28:28;;;;;;;66.80;25.87;;;;;;;4.65;100.00;100196.00;5049042;28;20201;-78
2024/03/04 08:30:54;;;;;;;81.20;27.30;;;;;;;4.67;100.00;100190.63;5056095;28;20689;-80
2024/03/04 08:33:21;;;;;;;69.17;25.70;;;;;;;4.71;100.00;100200.09;5049066;28;20209;-82
2024/03/04 08:35:47;;;;;;;69.53;26.33;;;;;;;4.74;100.00;100200.81;5050622;28;20216;-81
2024/03/04 08:38:13;;;;;;;65.90;25.67;;;;;;;4.76;100.00;100198.97;5047961;28;20210;-80
2024/03/04 08:40:41;;;;;;;78.97;28.10;;;;;;;4.80;100.00;100200.56;5051637;28;20208;-81
2024/03/04 08:43:09;;;;;;;98.17;27.80;;;;;;;4.86;100.00;100202.88;5055314;28;20221;-80
2024/03/04 08:45:35;;;;;;;93.63;28.10;;;;;;;4.92;100.00;100203.53;5052259;28;20225;-80
2024/03/04 08:48:02;;;;;;;56.87;26.47;;;;;;;4.96;100.00;100213.88;5042915;28;20198;-80
2024/03/04 08:50:28;;;;;;;84.67;27.57;;;;;;;5.01;100.00;100208.38;5049759;28;20209;-80
2024/03/04 08:52:55;;;;;;;60.70;26.33;;;;;;;5.05;100.00;100209.94;5051969;28;20326;-80
2024/03/04 08:55:24;;;;;;;69.43;24.57;;;;;;;5.05;100.00;100215.19;5054736;28;20327;-80
2024/03/04 08:57:52;;;;;;;55.23;25.23;;;;;;;5.07;100.00;100210.72;5051040;28;20209;-80
2024/03/04 09:00:19;;;;;;;62.67;26.43;;;;;;;5.10;100.00;100213.22;5052004;28;20221;-81
2024/03/04 09:02:46;;;;;;;69.83;27.00;;;;;;;5.17;100.00;100214.63;5054783;28;20217;-79
2024/03/04 09:05:12;;;;;;;58.90;26.73;;;;;;;5.22;100.00;100216.09;5050085;28;20230;-80
2024/03/04 09:07:39;;;;;;;64.93;26.20;;;;;;;5.29;100.00;100214.03;5056567;28;20217;-80
2024/03/04 09:10:07;;;;;;;77.83;27.27;;;;;;;5.35;100.00;100210.25;5052335;28;20201;-79
2024/03/04 09:12:33;;;;;;;67.27;26.97;;;;;;;5.39;100.00;100220.56;5053047;28;20269;-81
2024/03/04 09:15:02;;;;;;;52.03;25.67;;;;;;;5.43;100.00;100216.84;5051084;28;20229;-80
2024/03/04 09:17:30;;;;;;;65.53;23.73;;;;;;;5.50;100.00;100226.19;5056247;28;20222;-80
2024/03/04 09:19:56;;;;;;;57.60;25.73;;;;;;;5.51;100.00;100222.63;5053562;28;20206;-80
2024/03/04 09:22:23;;;;;;;49.73;25.63;;;;;;;5.55;100.00;100218.06;5051567;28;20229;-79
2024/03/04 09:24:49;;;;;;;52.33;25.77;;;;;;;5.59;100.00;100224.88;5053589;28;20228;-80
2024/03/04 09:27:16;;;;;;;43.77;22.13;;;;;;;5.58;100.00;100226.66;5052990;28;20210;-80
2024/03/04 09:29:43;;;;;;;49.77;23.53;;;;;;;5.55;100.00;100218.06;5054643;28;20209;-80
2024/03/04 09:32:10;;;;;;;41.17;23.60;;;;;;;5.57;100.00;100224.94;5048757;28;20205;-79
2024/03/04 09:34:37;;;;;;;52.53;24.93;;;;;;;5.63;100.00;100225.59;5049606;28;20264;-80
2024/03/04 09:37:04;;;;;;;47.90;24.73;;;;;;;5.68;100.00;100224.44;5054348;28;20606;-80
2024/03/04 09:39:30;;;;;;;49.60;25.33;;;;;;;5.74;100.00;100231.16;5049253;28;20202;-81
2024/03/04 09:41:57;;;;;;;46.80;24.83;;;;;;;5.80;100.00;100230.88;5051230;28;20236;-80
2024/03/04 09:44:27;;;;;;;51.33;26.87;;;;;;;5.86;100.00;100225.28;5048160;28;20460;-79
2024/03/04 09:46:55;;;;;;;53.97;26.73;;;;;;;5.96;100.00;100237.13;5050929;28;20210;-80
2024/03/04 09:49:24;;;;;;;50.50;26.13;;;;;;;6.05;100.00;100233.16;5052472;28;20189;-80
2024/03/04 09:51:52;;;;;;;57.97;28.57;;;;;;;6.15;100.00;100234.41;5047172;28;20285;-79
2024/03/04 09:54:19;;;;;;;59.73;29.70;;;;;;;6.27;100.00;100234.59;5053750;28;20226;-80
2024/03/04 09:56:46;;;;;;;58.27;29.43;;;;;;;6.42;100.00;100235.63;5052088;28;20212;-80
2024/03/04 09:59:12;;;;;;;59.67;29.07;;;;;;;6.56;100.00;100232.22;5052852;28;20216;-80
2024/03/04 10:01:39;;;;;;;65.57;30.03;;;;;;;6.70;100.00;100240.28;5046579;28;20217;-80
2024/03/04 10:04:07;;;;;;;58.37;29.63;;;;;;;6.84;100.00;100243.03;5052127;28;20713;-81
2024/03/04 10:06:35;;;;;;;52.30;28.67;;;;;;;6.96;100.00;100238.88;5056003;28;20205;-81
2024/03/04 10:09:04;;;;;;;49.77;26.90;;;;;;;7.05;100.00;100241.00;5051634;28;20213;-80
2024/03/04 10:11:30;;;;;;;50.80;27.03;;;;;;;7.15;100.00;100236.06;5056165;28;20213;-81
2024/03/04 10:13:57;;;;;;;45.30;26.83;;;;;;;7.25;100.00;100239.88;5047415;28;20592;-81
2024/03/04 10:16:23;;;;;;;44.57;25.03;;;;;;;7.35;100.00;100243.72;5056304;28;20207;-81
2024/03/04 10:18:58;;;;;;;44.63;25.87;;;;;;;7.43;100.00;100246.81;5051940;28;20300;-80
2024/03/04 10:21:26;;;;;;;46.77;26.13;;;;;;;7.54;100.00;100249.69;5050625;28;20209;-80
2024/03/04 10:23:53;;;;;;;45.17;24.70;;;;;;;7.62;100.00;100258.06;5050786;28;20234;-80
2024/03/04 10:26:20;;;;;;;42.97;24.90;;;;;;;7.69;100.00;100255.94;5052569;28;20205;-79
2024/03/04 10:28:47;;;;;;;41.93;24.47;;;;;;;7.77;100.00;100255.47;5050844;28;20209;-81
2024/03/04 10:31:15;;;;;;;45.27;24.83;;;;;;;7.86;100.00;100265.56;5057350;28;20213;-80
2024/03/04 10:33:42;;;;;;;40.53;24.10;;;;;;;7.94;100.00;100272.09;5053782;28;20225;-81
2024/03/04 10:36:17;;;;;;;43.37;23.97;;;;;;;8.05;100.00;100266.19;5050515;28;20346;-80
2024/03/04 10:38:45;;;;;;;44.53;24.37;;;;;;;8.15;100.00;100272.63;5056168;28;20247;-81
2024/03/04 10:41:17;;;;;;;36.53;22.23;;;;;;;8.25;100.00;100272.94;5051891;28;20208;-80
2024/03/04 10:43:44;;;;;;;37.33;22.20;;;;;;;8.27;100.00;100266.59;5048029;28;20233;-81
2024/03/04 10:46:11;;;;;;;38.47;22.07;;;;;;;8.32;100.00;100264.56;5052802;28;20715;-80
2024/03/04 10:48:38;;;;;;;40.17;21.80;;;;;;;8.32;100.00;100264.56;5049803;28;20204;-80
2024/03/04 10:51:05;;;;;;;36.30;22.43;;;;;;;8.34;100.00;100261.81;5051833;28;20209;-80
2024/03/04 10:53:32;;;;;;;37.60;23.03;;;;;;;8.36;100.00;100265.22;5051554;28;20288;-81
2024/03/04 10:56:04;;;;;;;41.97;22.17;;;;;;;8.42;100.00;100266.66;5049418;28;20202;-81
2024/03/04 10:58:33;;;;;;;38.93;22.47;;;;;;;8.48;100.00;100268.94;5049128;28;20198;-81
2024/03/04 11:01:03;;;;;;;33.80;21.23;;;;;;;8.55;100.00;100268.47;5052414;28;20214;-80
2024/03/04 11:03:31;;;;;;;33.03;20.40;;;;;;;8.62;100.00;100272.44;5049234;28;20233;-81
2024/03/04 11:06:00;;;;;;;33.93;20.97;;;;;;;8.69;100.00;100270.28;5050927;28;20209;-81
2024/03/04 11:08:31;;;;;;;34.83;21.50;;;;;;;8.72;100.00;100271.91;5051095;28;20214;-81
2024/03/04 11:11:03;;;;;;;32.57;21.30;;;;;;;8.75;100.00;100277.03;5049249;28;20212;-80